Moraga, CA

8:41 PM PST on January 28, 2015 (GMT -0800)
Camino Pablo | Change Station
CLOSE
Current Station
Personal Weather Station
Location: Moraga, CA
Elevation: 502 ft
Nearby Weather Stations

Elev 502 ft 37.82 °N, 122.13 °W | Updated 11 seconds ago

Clear
Clear
47.9 °F
Feels Like 48 °F
N
0.0
Wind Variable Wind from SSW
Gusts 0.0 mph

Today
High -- | Low -- °F
--% Chance of Precip.
Yesterday
High -- | Low -- °F
Precip. -- in
7:15 AM 5:27 PM
Waxing Gibbous, 71% visible
Pressure 30.18 in
Visibility 10.0 miles
Clouds Scattered Clouds 18000 ft
Windchill 48 °F
Dew Point 44 °F
Humidity 88%
Rainfall 0.00 in
Snow Depth Not available.
UV 0 out of 12
Pollen 5.80 out of 12
Air Quality Not available.
Flu Activity Not available.
METAR KOAK 290353Z 29005KT 10SM SCT180 13/11 A3018 RMK AO2 SLP218 T01280106

More Conditions Fewer Conditions

Pressure 30.18 in
Visibility 10.0 miles
Clouds Scattered Clouds 18000 ft
Windchill 48 °F
Dew Point 44 °F
Humidity 88%
Rainfall 0.00 in
Snow Depth Not available.
UV 0 out of 12
Pollen 5.80 out of 12
Air Quality Not available.
Flu Activity Not available.
METAR KOAK 290353Z 29005KT 10SM SCT180 13/11 A3018 RMK AO2 SLP218 T01280106

More Conditions Fewer Conditions

10-Day Weather Forecast

Almanac

Astronomy

Jan. 28, 2015 Rise Set
Actual Time
Civil Twilight
Nautical Twilight
Astronomical Twilight
Moon
Length of Visible Light
Length of Day
Tomorrow will be .
, % of the Moon is Illuminated

Today's Extremes

State Highs State Lows

Community

WunderPhotos

Upload Photos

1,791,350 photos uploaded!

WunderBlogs® & News

Nearby

Air Quality

  Air Quality AQ Index Pollutant
Not available.

Snow Depth

Station Depth Elevation

Earthquake Activity

City Distance Mag. Time & Date
Minimum magnitude displayed is 2.5.

Coastal Water Temperatures

Place Temperature

Nearby Weather Stations